Time;durP1;ratioP1;P1;durP2;ratioP2;P2;SDS_P1;SDS_P2;PMS_P1;PMS_P2;Temp;Humidity;BMP_temperature;BMP_pressure;BME280_temperature;BME280_humidity;BME280_pressure;Samples;Min_cycle;Max_cycle;Signal;HPM_P1;HPM_P2
2023/12/22 00:01:01;;;;;;;0.00;0.00;;;;;;;;;;4961672;28;20187;-73
2023/12/22 00:03:27;;;;;;;0.00;0.00;;;;;;;;;;4966614;28;20035;-73
2023/12/22 00:05:53;;;;;;;2.35;1.08;;;;;;;;;;4969681;28;20866;-73
2023/12/22 00:08:19;;;;;;;1.00;0.32;;;;;;;;;;4967887;28;20076;-73
2023/12/22 00:10:45;;;;;;;0.00;0.00;;;;;;;;;;4965257;28;20045;-74
2023/12/22 00:13:11;;;;;;;0.80;0.52;;;;;;;;;;4965717;28;20039;-74
2023/12/22 00:15:37;;;;;;;0.30;0.10;;;;;;;;;;4963858;28;20089;-73
2023/12/22 00:18:04;;;;;;;2.38;0.32;;;;;;;;;;4964125;28;20069;-74
2023/12/22 00:20:30;;;;;;;0.30;0.20;;;;;;;;;;4968835;28;20046;-73
2023/12/22 00:22:56;;;;;;;0.15;0.13;;;;;;;;;;4967253;28;20049;-73
2023/12/22 00:25:22;;;;;;;0.45;0.45;;;;;;;;;;4966367;28;20042;-74
2023/12/22 00:27:48;;;;;;;0.32;0.32;;;;;;;;;;4967697;28;20046;-74
2023/12/22 00:30:14;;;;;;;0.10;0.00;;;;;;;;;;4968657;28;20043;-74
2023/12/22 00:32:40;;;;;;;3.70;0.85;;;;;;;;;;4966521;28;20049;-74
2023/12/22 00:35:06;;;;;;;0.30;0.30;;;;;;;;;;4964989;28;20038;-72
2023/12/22 00:37:32;;;;;;;2.97;0.73;;;;;;;;;;4966475;28;20085;-72
2023/12/22 00:39:58;;;;;;;22.15;0.52;;;;;;;;;;4968576;28;20034;-72
2023/12/22 00:42:24;;;;;;;0.47;0.30;;;;;;;;;;4964688;28;20038;-72
2023/12/22 00:44:50;;;;;;;0.08;0.05;;;;;;;;;;4962366;28;20038;-72
2023/12/22 00:47:16;;;;;;;0.43;0.22;;;;;;;;;;4964706;28;20766;-72
2023/12/22 00:49:42;;;;;;;5.10;1.05;;;;;;;;;;4964458;28;20026;-71
2023/12/22 00:52:08;;;;;;;1.35;1.00;;;;;;;;;;4965651;28;20042;-72
2023/12/22 00:54:34;;;;;;;2.35;0.47;;;;;;;;;;4964604;28;20038;-72
2023/12/22 00:57:00;;;;;;;3.58;0.50;;;;;;;;;;4963899;28;20043;-72
2023/12/22 00:59:26;;;;;;;1.55;0.20;;;;;;;;;;4960499;28;20027;-72
2023/12/22 01:01:52;;;;;;;9.05;2.10;;;;;;;;;;4961928;28;20374;-71
2023/12/22 01:04:21;;;;;;;0.00;0.00;;;;;;;;;;4943187;28;20039;-72
2023/12/22 01:06:47;;;;;;;0.95;0.43;;;;;;;;;;4950338;28;20093;-73
2023/12/22 01:09:14;;;;;;;5.53;0.75;;;;;;;;;;4946444;28;20042;-73
2023/12/22 01:11:40;;;;;;;1.45;0.10;;;;;;;;;;4944208;28;20054;-73
2023/12/22 01:14:06;;;;;;;2.28;0.45;;;;;;;;;;4936663;28;20211;-73
2023/12/22 01:16:33;;;;;;;0.22;0.22;;;;;;;;;;4944078;28;20105;-74
2023/12/22 01:18:59;;;;;;;1.40;0.35;;;;;;;;;;4942916;28;20134;-74
2023/12/22 01:21:24;;;;;;;4.15;0.57;;;;;;;;;;4950705;28;20547;-74
2023/12/22 01:23:51;;;;;;;3.03;0.40;;;;;;;;;;4947185;28;20062;-73
2023/12/22 01:26:17;;;;;;;2.25;0.60;;;;;;;;;;4949547;28;20129;-74
2023/12/22 01:28:43;;;;;;;7.78;0.93;;;;;;;;;;4963807;28;20038;-73
2023/12/22 01:31:09;;;;;;;0.88;0.52;;;;;;;;;;4945248;28;20089;-74
2023/12/22 01:33:35;;;;;;;0.65;0.20;;;;;;;;;;4958018;28;20047;-74
2023/12/22 01:36:01;;;;;;;0.10;0.10;;;;;;;;;;4963880;28;20042;-74
2023/12/22 01:38:27;;;;;;;4.22;0.63;;;;;;;;;;4951845;28;20039;-74
2023/12/22 01:40:52;;;;;;;0.32;0.32;;;;;;;;;;4952312;28;20276;-75
2023/12/22 01:43:21;;;;;;;1.17;0.17;;;;;;;;;;4949065;28;20039;-74
2023/12/22 01:45:48;;;;;;;4.80;0.40;;;;;;;;;;4945094;28;20043;-74
2023/12/22 01:48:14;;;;;;;7.95;1.33;;;;;;;;;;4974259;28;20051;-74
2023/12/22 01:50:40;;;;;;;1.90;1.75;;;;;;;;;;4943574;28;20039;-73
2023/12/22 01:53:06;;;;;;;0.17;0.17;;;;;;;;;;4955847;28;20050;-74
2023/12/22 01:55:32;;;;;;;2.28;0.30;;;;;;;;;;4948084;28;20780;-73
2023/12/22 01:57:58;;;;;;;0.20;0.00;;;;;;;;;;4946893;28;20047;-73
2023/12/22 02:00:24;;;;;;;0.03;0.03;;;;;;;;;;4968726;28;20149;-73
2023/12/22 02:02:50;;;;;;;0.60;0.60;;;;;;;;;;4970956;28;20861;-73
2023/12/22 02:05:16;;;;;;;6.38;0.98;;;;;;;;;;4971047;28;20045;-73
2023/12/22 02:07:43;;;;;;;0.95;0.28;;;;;;;;;;4972217;28;20069;-73
2023/12/22 02:10:09;;;;;;;1.65;0.55;;;;;;;;;;4965697;28;20043;-74
2023/12/22 02:12:38;;;;;;;2.00;1.85;;;;;;;;;;4969679;28;20066;-74
2023/12/22 02:15:05;;;;;;;0.00;0.00;;;;;;;;;;4964270;28;20465;-73
2023/12/22 02:17:37;;;;;;;0.55;0.55;;;;;;;;;;4968020;28;20060;-73
2023/12/22 02:20:04;;;;;;;1.13;0.55;;;;;;;;;;4969259;28;20042;-72
2023/12/22 02:22:30;;;;;;;1.80;0.57;;;;;;;;;;4970940;28;21342;-73
2023/12/22 02:24:55;;;;;;;2.47;0.47;;;;;;;;;;4968406;28;20101;-72
2023/12/22 02:27:24;;;;;;;0.80;0.45;;;;;;;;;;4967822;28;20417;-72
2023/12/22 02:29:53;;;;;;;0.28;0.10;;;;;;;;;;4966169;28;20097;-72
2023/12/22 02:32:23;;;;;;;0.00;0.00;;;;;;;;;;4969383;28;20045;-73
2023/12/22 02:34:51;;;;;;;0.00;0.00;;;;;;;;;;4969509;28;20845;-73
2023/12/22 02:37:18;;;;;;;2.40;0.77;;;;;;;;;;4968628;28;20054;-72
2023/12/22 02:39:45;;;;;;;0.00;0.00;;;;;;;;;;4966033;28;20065;-72
2023/12/22 02:42:11;;;;;;;0.30;0.28;;;;;;;;;;4966165;28;20038;-73
2023/12/22 02:44:38;;;;;;;0.15;0.15;;;;;;;;;;4970674;28;20096;-73
2023/12/22 02:47:04;;;;;;;0.43;0.20;;;;;;;;;;4968921;28;20040;-74
2023/12/22 02:49:30;;;;;;;0.10;0.10;;;;;;;;;;4967250;28;20046;-73
2023/12/22 02:51:56;;;;;;;0.00;0.00;;;;;;;;;;4971381;28;20592;-73
2023/12/22 02:54:22;;;;;;;0.20;0.20;;;;;;;;;;4969865;28;20039;-73
2023/12/22 02:56:48;;;;;;;0.10;0.10;;;;;;;;;;4968332;28;20030;-73
2023/12/22 02:59:14;;;;;;;0.00;0.00;;;;;;;;;;4968559;28;20522;-73
2023/12/22 03:01:40;;;;;;;0.20;0.20;;;;;;;;;;4970248;28;20041;-73
2023/12/22 03:04:06;;;;;;;0.00;0.00;;;;;;;;;;4964680;28;20411;-73
2023/12/22 03:06:32;;;;;;;0.00;0.00;;;;;;;;;;4964358;28;20411;-73
2023/12/22 03:08:58;;;;;;;0.00;0.00;;;;;;;;;;4969895;28;20117;-74
2023/12/22 03:11:24;;;;;;;0.00;0.00;;;;;;;;;;4968147;28;20118;-73
2023/12/22 03:13:50;;;;;;;0.17;0.17;;;;;;;;;;4968804;28;20559;-74
2023/12/22 03:16:16;;;;;;;0.00;0.00;;;;;;;;;;4967308;28;20142;-74
2023/12/22 03:18:42;;;;;;;0.32;0.15;;;;;;;;;;4966340;28;23646;-73
2023/12/22 03:21:08;;;;;;;0.00;0.00;;;;;;;;;;4966433;28;20038;-73
2023/12/22 03:23:34;;;;;;;0.00;0.00;;;;;;;;;;4971231;28;20045;-74
2023/12/22 03:26:04;;;;;;;0.00;0.00;;;;;;;;;;4969093;28;20371;-73
2023/12/22 03:28:30;;;;;;;0.00;0.00;;;;;;;;;;4965808;28;20034;-72
2023/12/22 03:30:56;;;;;;;0.00;0.00;;;;;;;;;;4964207;28;20046;-73
2023/12/22 03:33:21;;;;;;;0.00;0.00;;;;;;;;;;4965483;28;20050;-72
2023/12/22 03:35:47;;;;;;;0.00;0.00;;;;;;;;;;4962169;28;20224;-72
2023/12/22 03:38:13;;;;;;;0.00;0.00;;;;;;;;;;4968727;28;20042;-73
2023/12/22 03:40:39;;;;;;;0.00;0.00;;;;;;;;;;4964121;28;20043;-72
2023/12/22 03:43:05;;;;;;;0.00;0.00;;;;;;;;;;4966347;28;20046;-73
2023/12/22 03:45:31;;;;;;;0.25;0.25;;;;;;;;;;4964348;28;20042;-73
2023/12/22 03:47:57;;;;;;;0.00;0.00;;;;;;;;;;4966758;28;20401;-72
2023/12/22 03:50:23;;;;;;;0.00;0.00;;;;;;;;;;4966676;28;20712;-73
2023/12/22 03:52:49;;;;;;;0.00;0.00;;;;;;;;;;4966916;28;20038;-72
2023/12/22 03:55:15;;;;;;;0.00;0.00;;;;;;;;;;4965624;28;20089;-72
2023/12/22 03:57:41;;;;;;;0.65;0.52;;;;;;;;;;4970311;28;20414;-72
2023/12/22 04:00:08;;;;;;;0.03;0.03;;;;;;;;;;4952414;28;20031;-72
2023/12/22 04:02:34;;;;;;;2.78;1.15;;;;;;;;;;4948386;28;20778;-72
2023/12/22 04:05:00;;;;;;;0.70;0.03;;;;;;;;;;4953972;28;20035;-72
2023/12/22 04:07:26;;;;;;;0.00;0.00;;;;;;;;;;4960733;28;20042;-72
2023/12/22 04:09:52;;;;;;;1.40;0.10;;;;;;;;;;4968610;28;20054;-72
2023/12/22 04:12:18;;;;;;;0.35;0.05;;;;;;;;;;4967925;28;20033;-73
2023/12/22 04:14:44;;;;;;;8.38;0.73;;;;;;;;;;4963703;28;20034;-73
2023/12/22 04:17:10;;;;;;;11.27;0.30;;;;;;;;;;4967909;28;20065;-73
2023/12/22 04:19:37;;;;;;;1.50;0.22;;;;;;;;;;4964416;28;20035;-73
2023/12/22 04:22:03;;;;;;;1.75;0.25;;;;;;;;;;4970896;28;20055;-73
2023/12/22 04:24:29;;;;;;;0.70;0.45;;;;;;;;;;4964665;28;20035;-73
2023/12/22 04:26:55;;;;;;;1.02;0.10;;;;;;;;;;4966267;28;20052;-74
2023/12/22 04:29:21;;;;;;;2.22;0.47;;;;;;;;;;4967052;28;20047;-73
2023/12/22 04:31:47;;;;;;;1.17;0.35;;;;;;;;;;4977688;28;20046;-73
2023/12/22 04:34:17;;;;;;;7.10;0.57;;;;;;;;;;4974365;28;20030;-73
2023/12/22 04:36:43;;;;;;;1.80;0.13;;;;;;;;;;4971276;28;20684;-72
2023/12/22 04:39:09;;;;;;;1.95;0.40;;;;;;;;;;4963730;28;20047;-72
2023/12/22 04:41:35;;;;;;;10.05;0.65;;;;;;;;;;4966647;28;20390;-73
2023/12/22 04:44:04;;;;;;;0.00;0.00;;;;;;;;;;4964020;28;20638;-73
2023/12/22 04:46:30;;;;;;;0.00;0.00;;;;;;;;;;4969374;28;20038;-72
2023/12/22 04:48:56;;;;;;;4.22;0.40;;;;;;;;;;4966656;28;20073;-72
2023/12/22 04:51:22;;;;;;;0.00;0.00;;;;;;;;;;4967382;28;20409;-72
2023/12/22 04:53:48;;;;;;;7.72;1.35;;;;;;;;;;4964850;28;20557;-72
2023/12/22 04:56:14;;;;;;;9.02;1.15;;;;;;;;;;4961797;28;20038;-73
2023/12/22 04:58:40;;;;;;;2.33;1.25;;;;;;;;;;4979974;28;20041;-72
2023/12/22 05:01:06;;;;;;;2.28;0.85;;;;;;;;;;4964913;28;20034;-72
2023/12/22 05:03:32;;;;;;;0.63;0.63;;;;;;;;;;4967407;28;20034;-71
2023/12/22 05:05:58;;;;;;;2.00;0.47;;;;;;;;;;4960084;28;20042;-71
2023/12/22 05:08:24;;;;;;;0.55;0.40;;;;;;;;;;4975978;28;20042;-72
2023/12/22 05:10:50;;;;;;;0.00;0.00;;;;;;;;;;4967860;28;20130;-72
2023/12/22 05:13:16;;;;;;;3.40;0.43;;;;;;;;;;4976925;28;20113;-72
2023/12/22 05:15:42;;;;;;;4.18;0.22;;;;;;;;;;4964690;28;20137;-72
2023/12/22 05:18:08;;;;;;;0.00;0.00;;;;;;;;;;4967231;28;20105;-73
2023/12/22 05:20:34;;;;;;;0.00;0.00;;;6.80;99.90;;;;;;4969219;28;20046;-72
2023/12/22 05:23:00;;;;;;;0.00;0.00;;;7.00;99.90;;;;;;4966374;28;20391;-72
2023/12/22 05:25:25;;;;;;;2.17;0.40;;;6.90;99.90;;;;;;4964820;28;20094;-72
2023/12/22 05:27:51;;;;;;;6.25;0.85;;;7.00;99.90;;;;;;4965512;28;20654;-72
2023/12/22 05:30:17;;;;;;;1.55;0.90;;;7.00;99.90;;;;;;4971798;28;20053;-73
2023/12/22 05:32:44;;;;;;;3.40;0.55;;;7.10;99.90;;;;;;4970059;28;20411;-72
2023/12/22 05:35:10;;;;;;;7.53;1.98;;;7.00;99.90;;;;;;4967750;28;20058;-72
2023/12/22 05:37:35;;;;;;;1.35;0.57;;;7.00;99.90;;;;;;4971271;28;20038;-71
2023/12/22 05:40:01;;;;;;;3.00;1.33;;;6.80;99.90;;;;;;4968873;28;20155;-72
2023/12/22 05:42:27;;;;;;;1.80;0.77;;;6.30;99.90;;;;;;4968774;28;20394;-72
2023/12/22 05:44:53;;;;;;;1.45;0.17;;;6.30;99.90;;;;;;4964299;28;20395;-72
2023/12/22 05:47:18;;;;;;;0.03;0.03;;;6.30;99.90;;;;;;4967669;28;20651;-73
2023/12/22 05:49:44;;;;;;;0.00;0.00;;;6.30;99.90;;;;;;4967859;28;20676;-74
2023/12/22 05:52:11;;;;;;;1.40;0.93;;;6.30;99.90;;;;;;4967260;28;20042;-73
2023/12/22 05:54:38;;;;;;;0.00;0.00;;;6.30;99.90;;;;;;4969332;28;20044;-74
2023/12/22 05:57:06;;;;;;;3.83;0.55;;;6.40;99.90;;;;;;4971423;28;20041;-74
2023/12/22 05:59:34;;;;;;;2.17;0.10;;;6.40;99.90;;;;;;4966637;28;20497;-73
2023/12/22 06:02:00;;;;;;;0.20;0.20;;;6.50;99.90;;;;;;4969943;28;20039;-73
2023/12/22 06:04:26;;;;;;;1.95;0.52;;;6.60;99.90;;;;;;4981010;28;20097;-74
2023/12/22 06:06:54;;;;;;;0.35;0.35;;;6.70;99.90;;;;;;4965733;28;20463;-74
2023/12/22 06:09:21;;;;;;;0.82;0.75;;;;;;;;;;4968072;28;20039;-74
2023/12/22 06:11:47;;;;;;;0.00;0.00;;;;;;;;;;4971654;28;20038;-74
2023/12/22 06:14:15;;;;;;;0.00;0.00;;;7.00;99.90;;;;;;4969909;28;20038;-74
2023/12/22 06:16:42;;;;;;;0.00;0.00;;;;;;;;;;4953841;28;20051;-74
2023/12/22 06:19:10;;;;;;;0.65;0.65;;;;;;;;;;4948046;28;20058;-74
2023/12/22 06:21:40;;;;;;;0.30;0.30;;;;;;;;;;4953062;28;20040;-74
2023/12/22 06:24:07;;;;;;;0.28;0.28;;;;;;;;;;4958414;28;20677;-74
2023/12/22 06:26:36;;;;;;;5.80;0.47;;;;;;;;;;4980089;28;20043;-72
2023/12/22 06:29:04;;;;;;;0.00;0.00;;;7.00;99.90;;;;;;4951149;28;20057;-73
2023/12/22 06:31:29;;;;;;;0.00;0.00;;;7.10;99.90;;;;;;4944752;28;20035;-73
2023/12/22 06:34:00;;;;;;;0.00;0.00;;;7.20;99.90;;;;;;4950551;28;20054;-73
2023/12/22 06:36:26;;;;;;;3.20;0.20;;;7.20;99.90;;;;;;4972723;28;20042;-73
2023/12/22 06:38:53;;;;;;;0.00;0.00;;;7.20;99.90;;;;;;4963549;28;20526;-73
2023/12/22 06:41:23;;;;;;;0.15;0.15;;;7.20;99.90;;;;;;4966984;28;20398;-73
2023/12/22 06:43:49;;;;;;;0.75;0.38;;;7.30;99.90;;;;;;4966852;28;20046;-73
2023/12/22 06:46:16;;;;;;;0.22;0.20;;;7.40;99.90;;;;;;4965746;28;20115;-73
2023/12/22 06:48:41;;;;;;;1.15;0.20;;;7.40;99.90;;;;;;4968343;28;20050;-73
2023/12/22 06:51:07;;;;;;;0.45;0.10;;;7.50;99.90;;;;;;4966706;28;20898;-73
2023/12/22 06:53:33;;;;;;;0.00;0.00;;;;;;;;;;4972546;28;20438;-73
2023/12/22 06:56:00;;;;;;;0.65;0.55;;;;;;;;;;4966871;28;20493;-73
2023/12/22 06:58:25;;;;;;;3.30;0.50;;;7.40;99.90;;;;;;4969633;28;20039;-73
2023/12/22 07:00:51;;;;;;;0.35;0.13;;;7.70;99.90;;;;;;4975074;28;20044;-73
2023/12/22 07:03:19;;;;;;;2.88;0.93;;;7.70;99.90;;;;;;4979648;28;20716;-73
2023/12/22 07:05:44;;;;;;;2.08;0.43;;;7.70;99.90;;;;;;4971828;28;20041;-72
2023/12/22 07:08:10;;;;;;;0.38;0.38;;;7.70;99.90;;;;;;4972430;28;20050;-73
2023/12/22 07:10:36;;;;;;;1.65;0.68;;;;;;;;;;4972489;28;20035;-72
2023/12/22 07:13:02;;;;;;;0.00;0.00;;;;;;;;;;4966593;28;20068;-73
2023/12/22 07:15:28;;;;;;;0.20;0.20;;;;;;;;;;4980534;28;20042;-73
2023/12/22 07:17:54;;;;;;;0.22;0.10;;;;;;;;;;4968414;28;20049;-73
2023/12/22 07:20:20;;;;;;;0.00;0.00;;;;;;;;;;4965550;28;20524;-73
2023/12/22 07:22:46;;;;;;;2.80;0.77;;;;;;;;;;4965309;28;20034;-73
2023/12/22 07:25:12;;;;;;;4.95;0.80;;;;;;;;;;4980807;28;20633;-73
2023/12/22 07:27:38;;;;;;;0.70;0.32;;;;;;;;;;4963047;28;20466;-72
2023/12/22 07:30:04;;;;;;;2.60;0.90;;;;;;;;;;4969106;28;20447;-72
2023/12/22 07:32:30;;;;;;;1.77;0.85;;;;;;;;;;4966505;28;20031;-73
2023/12/22 07:34:56;;;;;;;2.28;0.60;;;;;;;;;;4975883;28;20053;-74
2023/12/22 07:37:21;;;;;;;4.45;1.75;;;;;;;;;;4955549;28;20034;-74
2023/12/22 07:39:47;;;;;;;1.33;0.60;;;;;;;;;;4945718;28;20065;-75
2023/12/22 07:42:13;;;;;;;4.25;0.88;;;;;;;;;;4955390;28;20111;-73
2023/12/22 07:44:40;;;;;;;4.30;0.22;;;;;;;;;;4955669;28;20279;-73
2023/12/22 07:47:07;;;;;;;10.77;1.13;;;;;;;;;;4959229;28;20039;-74
2023/12/22 07:49:33;;;;;;;2.05;0.57;;;;;;;;;;4951344;28;20685;-74
2023/12/22 07:51:59;;;;;;;0.85;0.85;;;;;;;;;;4955561;28;20039;-74
2023/12/22 07:54:25;;;;;;;0.15;0.08;;;;;;;;;;4950793;28;20113;-74
2023/12/22 07:56:52;;;;;;;0.45;0.43;;;;;;;;;;4948193;28;20039;-74
2023/12/22 07:59:17;;;;;;;4.00;0.80;;;;;;;;;;4944588;28;30405;-74
2023/12/22 08:01:43;;;;;;;0.00;0.00;;;;;;;;;;4948257;28;20035;-74
2023/12/22 08:04:09;;;;;;;3.92;0.90;;;;;;;;;;4946635;28;20050;-74
2023/12/22 08:06:36;;;;;;;0.20;0.20;;;;;;;;;;4945733;28;20543;-74
2023/12/22 08:09:02;;;;;;;3.50;0.20;;;;;;;;;;4945427;28;20035;-74
2023/12/22 08:11:28;;;;;;;2.67;0.60;;;;;;;;;;4945425;28;20467;-75
2023/12/22 08:13:54;;;;;;;0.55;0.52;;;;;;;;;;4946567;28;20039;-74
2023/12/22 08:16:20;;;;;;;12.40;1.58;;;;;;;;;;4945072;28;20440;-74
2023/12/22 08:18:46;;;;;;;1.30;0.35;;;;;;;;;;4943951;28;20066;-76
2023/12/22 08:21:12;;;;;;;2.55;0.50;;;;;;;;;;4948035;28;20059;-76
2023/12/22 08:23:38;;;;;;;0.43;0.35;;;;;;;;;;4953100;28;20046;-77
2023/12/22 08:26:04;;;;;;;0.38;0.35;;;;;;;;;;4959303;28;20502;-76
2023/12/22 08:28:30;;;;;;;4.05;0.57;;;;;;;;;;4964700;28;20390;-76
2023/12/22 08:30:56;;;;;;;3.35;1.40;;;;;;;;;;4964695;28;20376;-77
2023/12/22 08:33:22;;;;;;;3.97;2.25;;;;;;;;;;4967747;28;20708;-76
2023/12/22 08:35:48;;;;;;;0.50;0.50;;;;;;;;;;4968051;28;20050;-75
2023/12/22 08:38:15;;;;;;;0.00;0.00;;;;;;;;;;4967509;28;20053;-76
2023/12/22 08:40:41;;;;;;;3.30;0.70;;;;;;;;;;4959489;28;20035;-76
2023/12/22 08:43:07;;;;;;;0.75;0.55;;;;;;;;;;4965828;28;20042;-76
2023/12/22 08:45:33;;;;;;;0.00;0.00;;;;;;;;;;4947574;28;20038;-74
2023/12/22 08:48:00;;;;;;;3.90;1.55;;;;;;;;;;4952749;28;20042;-75
2023/12/22 08:50:26;;;;;;;0.00;0.00;;;;;;;;;;4963413;28;20034;-74
2023/12/22 08:52:52;;;;;;;0.13;0.10;;;;;;;;;;4963915;28;20591;-74
2023/12/22 08:55:18;;;;;;;0.60;0.20;;;;;;;;;;4964065;28;20046;-75
2023/12/22 08:57:44;;;;;;;2.85;1.35;;;;;;;;;;4979021;28;20034;-74
2023/12/22 09:00:10;;;;;;;10.75;0.22;;;;;;;;;;4960150;28;20063;-74
2023/12/22 09:02:36;;;;;;;5.57;0.98;;;;;;;;;;4965784;28;20031;-74
2023/12/22 09:05:02;;;;;;;0.10;0.10;;;;;;;;;;4947749;28;20040;-75
2023/12/22 09:07:28;;;;;;;9.20;0.85;;;;;;;;;;4957034;28;20046;-75
2023/12/22 09:09:54;;;;;;;7.13;2.92;;;;;;;;;;4956156;28;20129;-74
2023/12/22 09:12:20;;;;;;;0.30;0.30;;;;;;;;;;4966772;28;22328;-75
2023/12/22 09:14:46;;;;;;;2.17;1.02;;;;;;;;;;4967797;28;20070;-76
2023/12/22 09:17:12;;;;;;;0.30;0.13;;;;;;;;;;4967443;28;20031;-75
2023/12/22 09:19:39;;;;;;;1.80;0.25;;;;;;;;;;4964006;28;20035;-75
2023/12/22 09:22:05;;;;;;;1.98;0.45;;;;;;;;;;4965782;28;20034;-76
2023/12/22 09:24:31;;;;;;;0.55;0.22;;;;;;;;;;4964276;28;20486;-76
2023/12/22 09:27:02;;;;;;;1.48;0.43;;;;;;;;;;4971057;28;20248;-77
2023/12/22 09:29:28;;;;;;;6.10;0.98;;;;;;;;;;4963786;28;20035;-76
2023/12/22 09:31:54;;;;;;;0.75;0.75;;;;;;;;;;4966687;28;20685;-76
2023/12/22 09:34:20;;;;;;;8.68;0.88;;;;;;;;;;4965316;28;20086;-77
2023/12/22 09:36:46;;;;;;;5.47;0.47;;;;;;;;;;4966926;28;20057;-76
2023/12/22 09:39:16;;;;;;;18.00;0.63;;;;;;;;;;4969675;28;20106;-76
2023/12/22 09:41:43;;;;;;;1.95;0.20;;;;;;;;;;4967570;28;20050;-76
2023/12/22 09:44:09;;;;;;;0.65;0.00;;;;;;;;;;4951670;28;20043;-76
2023/12/22 09:46:37;;;;;;;0.10;0.10;;;;;;;;;;4953883;28;20038;-76
2023/12/22 09:49:03;;;;;;;5.35;0.73;;;;;;;;;;4948600;28;20039;-76
2023/12/22 09:51:30;;;;;;;4.75;1.45;;;;;;;;;;4963928;28;20050;-76
2023/12/22 09:53:58;;;;;;;2.47;1.05;;;;;;;;;;4956499;28;20058;-78
2023/12/22 09:56:24;;;;;;;10.85;1.15;;;;;;;;;;4964977;28;20386;-77
2023/12/22 09:58:52;;;;;;;0.00;0.00;;;;;;;;;;4966783;28;20050;-77
2023/12/22 10:01:22;;;;;;;2.42;0.30;;;;;;;;;;4979999;28;20049;-78
2023/12/22 10:03:47;;;;;;;0.57;0.55;;;;;;;;;;4958879;28;20545;-76
2023/12/22 10:06:14;;;;;;;0.57;0.32;;;;;;;;;;4960969;28;20576;-75
2023/12/22 10:08:40;;;;;;;1.08;0.43;;;;;;;;;;4974133;28;20035;-75
2023/12/22 10:11:07;;;;;;;3.90;1.33;;;;;;;;;;4961058;28;20039;-75
2023/12/22 10:13:33;;;;;;;0.90;0.30;;;;;;;;;;4965297;28;20136;-75
2023/12/22 10:16:00;;;;;;;0.00;0.00;;;;;;;;;;4967446;28;20693;-76
2023/12/22 10:18:26;;;;;;;0.73;0.08;;;;;;;;;;4965859;28;20030;-77
2023/12/22 10:20:52;;;;;;;0.00;0.00;;;;;;;;;;4969812;28;20133;-76
2023/12/22 10:23:17;;;;;;;0.57;0.20;;;;;;;;;;4971564;28;20078;-76
2023/12/22 10:25:43;;;;;;;1.27;0.28;;;;;;;;;;4967238;28;20158;-76
2023/12/22 10:28:13;;;;;;;1.55;1.15;;;;;;;;;;4970533;28;20045;-75
2023/12/22 10:30:41;;;;;;;0.52;0.25;;;;;;;;;;4967622;28;20047;-76
2023/12/22 10:33:07;;;;;;;0.00;0.00;;;;;;;;;;4974364;28;20093;-77
2023/12/22 10:35:33;;;;;;;0.47;0.47;;;;;;;;;;4968143;28;20081;-76
2023/12/22 10:37:59;;;;;;;0.32;0.10;;;;;;;;;;4972143;28;20146;-76
2023/12/22 10:40:25;;;;;;;21.42;3.45;;;;;;;;;;4966778;28;20150;-75
2023/12/22 10:42:51;;;;;;;1.20;0.22;;;;;;;;;;4969516;28;20039;-77
2023/12/22 10:45:20;;;;;;;0.20;0.15;;;;;;;;;;4966870;28;20031;-75
2023/12/22 10:47:50;;;;;;;7.18;1.02;;;;;;;;;;4965250;28;20371;-77
2023/12/22 10:50:16;;;;;;;0.65;0.52;;;;;;;;;;4965348;28;20034;-76
2023/12/22 10:52:49;;;;;;;6.13;0.80;;;;;;;;;;4969051;28;20037;-77
2023/12/22 10:55:16;;;;;;;0.45;0.20;;;;;;;;;;4966171;28;20046;-75
2023/12/22 10:57:43;;;;;;;0.10;0.10;;;;;;;;;;4967049;28;20031;-75
2023/12/22 11:00:10;;;;;;;0.10;0.10;;;;;;;;;;4965781;28;20419;-76
2023/12/22 11:02:41;;;;;;;0.10;0.10;;;;;;;;;;4964169;28;20037;-76
2023/12/22 11:05:08;;;;;;;2.95;0.40;;;;;;;;;;4963796;28;20109;-75
2023/12/22 11:07:35;;;;;;;0.10;0.00;;;;;;;;;;4972356;28;20069;-75
2023/12/22 11:10:06;;;;;;;0.47;0.40;;;;;;;;;;4968392;28;20547;-75
2023/12/22 11:12:34;;;;;;;0.00;0.00;;;;;;;;;;4968112;28;20039;-75
2023/12/22 11:15:00;;;;;;;0.08;0.00;;;;;;;;;;4967550;28;20061;-77
2023/12/22 11:17:27;;;;;;;2.03;0.55;;;;;;;;;;4970453;28;20041;-76
2023/12/22 11:19:56;;;;;;;0.40;0.20;;;;;;;;;;4970685;28;20034;-75
2023/12/22 11:22:22;;;;;;;0.10;0.10;;;;;;;;;;4966003;28;20394;-75
2023/12/22 11:24:49;;;;;;;1.35;0.25;;;;;;;;;;4968883;28;20026;-76
2023/12/22 11:27:19;;;;;;;0.55;0.47;;;;;;;;;;4963777;28;20050;-76
2023/12/22 11:29:51;;;;;;;2.35;1.45;;;;;;;;;;4971356;28;20424;-75
2023/12/22 11:32:18;;;;;;;1.40;0.73;;;;;;;;;;4971816;28;20085;-76
2023/12/22 11:34:46;;;;;;;0.10;0.00;;;;;;;;;;4970808;28;20043;-75
2023/12/22 11:37:15;;;;;;;1.80;0.40;;;;;;;;;;4968238;28;20481;-73
2023/12/22 11:39:42;;;;;;;0.20;0.20;;;;;;;;;;4978035;28;20459;-76
2023/12/22 11:42:11;;;;;;;1.15;0.65;;;;;;;;;;4967267;28;20037;-74
2023/12/22 11:44:37;;;;;;;0.43;0.43;;;;;;;;;;4967032;28;20042;-69
2023/12/22 11:47:07;;;;;;;0.13;0.13;;;;;;;;;;4965269;28;20105;-74
2023/12/22 11:49:34;;;;;;;0.73;0.73;;;;;;;;;;4967731;28;20506;-71
2023/12/22 11:52:00;;;;;;;0.45;0.28;;;;;;;;;;4962284;28;20574;-73
2023/12/22 11:54:48;;;;;;;0.28;0.20;;;;;;;;;;4962955;28;20538;-69
2023/12/22 11:57:30;;;;;;;1.10;0.90;;;;;;;;;;4966115;28;20719;-70
2023/12/22 11:59:56;;;;;;;2.58;0.30;;;;;;;;;;4963158;28;20042;-70
2023/12/22 12:02:22;;;;;;;2.00;0.52;;;;;;;;;;4965386;28;20778;-70
2023/12/22 12:04:49;;;;;;;1.27;0.55;;;;;;;;;;4965999;28;20471;-69
2023/12/22 12:07:33;;;;;;;0.22;0.22;;;;;;;;;;4965819;28;20034;-70
2023/12/22 12:09:59;;;;;;;0.30;0.30;;;;;;;;;;4962885;28;20093;-70
2023/12/22 12:12:25;;;;;;;1.20;0.68;;;;;;;;;;4970071;28;20113;-72
2023/12/22 12:14:55;;;;;;;7.82;1.30;;;;;;;;;;4967943;28;20039;-66
2023/12/22 12:17:21;;;;;;;0.63;0.50;;;;;;;;;;4971596;28;20869;-68
2023/12/22 12:19:48;;;;;;;1.73;0.38;;;;;;;;;;4961959;28;20042;-68
2023/12/22 12:22:14;;;;;;;2.38;0.32;;;;;;;;;;4959858;28;20125;-67
2023/12/22 12:24:42;;;;;;;0.60;0.50;;;;;;;;;;4962230;28;20522;-67
2023/12/22 12:27:08;;;;;;;0.20;0.20;;;;;;;;;;4949082;28;20427;-67
2023/12/22 12:29:34;;;;;;;1.00;0.60;;;;;;;;;;4963514;28;21176;-67
2023/12/22 12:32:04;;;;;;;3.30;0.30;;;;;;;;;;4965541;28;20038;-68
2023/12/22 12:34:31;;;;;;;0.10;0.10;;;;;;;;;;4969629;28;20041;-68
2023/12/22 12:36:57;;;;;;;0.50;0.50;;;;;;;;;;4960808;28;20602;-66
2023/12/22 12:39:28;;;;;;;1.85;0.60;;;;;;;;;;4950592;28;20046;-67
2023/12/22 12:41:56;;;;;;;0.55;0.40;;;;;;;;;;4953542;28;20518;-65
2023/12/22 12:44:23;;;;;;;12.13;0.82;;;;;;;;;;4980046;28;20053;-67
2023/12/22 12:46:49;;;;;;;0.40;0.40;;;;;;;;;;4957247;28;20150;-67
2023/12/22 12:49:15;;;;;;;2.28;0.80;;;;;;;;;;4967497;28;20149;-66
2023/12/22 12:51:43;;;;;;;1.38;0.50;;;;;;;;;;4955962;28;20039;-68
2023/12/22 12:54:10;;;;;;;0.20;0.20;;;;;;;;;;4961761;28;20030;-67
2023/12/22 12:56:42;;;;;;;0.70;0.43;;;;;;;;;;4953357;28;20133;-68
2023/12/22 12:59:09;;;;;;;4.15;0.55;;;;;;;;;;4946419;28;20038;-67
2023/12/22 13:01:42;;;;;;;0.25;0.22;;;;;;;;;;4973774;28;20046;-68
2023/12/22 13:04:08;;;;;;;0.00;0.00;;;;;;;;;;4975271;28;20038;-67
2023/12/22 13:06:34;;;;;;;0.10;0.10;;;;;;;;;;4965564;28;20045;-70
2023/12/22 13:09:00;;;;;;;0.22;0.20;;;;;;;;;;4964025;28;20145;-71
2023/12/22 13:11:27;;;;;;;3.72;3.40;;;;;;;;;;4979822;28;20585;-70
2023/12/22 13:13:53;;;;;;;1.13;0.68;;;;;;;;;;4962941;28;20158;-73
2023/12/22 13:16:29;;;;;;;0.20;0.10;;;;;;;;;;4949983;28;20137;-70
2023/12/22 13:18:55;;;;;;;1.73;0.57;;;;;;;;;;4958309;28;20078;-70
2023/12/22 13:21:21;;;;;;;1.25;0.65;;;;;;;;;;4962585;28;20045;-70
2023/12/22 13:23:47;;;;;;;1.45;0.40;;;;;;;;;;4947526;28;20071;-70
2023/12/22 13:26:22;;;;;;;2.15;0.85;;;;;;;;;;4938872;28;21047;-69
2023/12/22 13:28:48;;;;;;;2.95;0.65;;;;;;;;;;4953324;28;20083;-69
2023/12/22 13:31:14;;;;;;;2.25;0.57;;;;;;;;;;4945965;28;20046;-68
2023/12/22 13:33:41;;;;;;;0.65;0.30;;;;;;;;;;4953776;28;20042;-68
2023/12/22 13:36:07;;;;;;;0.08;0.08;;;;;;;;;;4965328;28;20138;-68
2023/12/22 13:38:33;;;;;;;0.65;0.30;;;;;;;;;;4962993;28;20038;-69
2023/12/22 13:41:01;;;;;;;1.65;0.90;;;;;;;;;;4957945;28;20390;-67
2023/12/22 13:43:30;;;;;;;1.67;0.68;;;;;;;;;;4946191;28;20395;-68
2023/12/22 13:45:57;;;;;;;3.63;1.20;;;;;;;;;;4955665;28;20085;-68
2023/12/22 13:48:23;;;;;;;0.90;0.50;;;;;;;;;;4959523;28;20043;-68
2023/12/22 13:50:59;;;;;;;1.33;0.60;;;;;;;;;;4951882;28;20138;-68
2023/12/22 13:53:25;;;;;;;2.60;0.60;;;;;;;;;;4966409;28;20039;-68
2023/12/22 13:55:54;;;;;;;0.47;0.47;;;;;;;;;;4967165;28;20043;-68
2023/12/22 13:58:20;;;;;;;3.65;0.77;;;;;;;;;;4965263;28;20414;-67
2023/12/22 14:00:46;;;;;;;4.75;1.08;;;;;;;;;;4967900;28;20128;-68
2023/12/22 14:03:12;;;;;;;5.15;0.75;;;;;;;;;;4968662;28;20532;-68
2023/12/22 14:05:38;;;;;;;3.22;0.50;;;;;;;;;;4955592;28;20042;-68
2023/12/22 14:08:05;;;;;;;0.00;0.00;;;;;;;;;;4961840;28;20757;-68
2023/12/22 14:10:31;;;;;;;1.75;1.48;;;;;;;;;;4967495;28;20046;-69
2023/12/22 14:12:57;;;;;;;0.88;0.63;;;;;;;;;;4967404;28;20063;-67
2023/12/22 14:15:23;;;;;;;1.52;0.40;;;;;;;;;;4955683;28;20171;-68
2023/12/22 14:17:49;;;;;;;1.85;0.95;;;;;;;;;;4946510;28;20031;-68
2023/12/22 14:20:17;;;;;;;2.70;0.85;;;;;;;;;;4946283;28;20066;-68
2023/12/22 14:22:43;;;;;;;1.15;0.50;;;;;;;;;;4950459;28;20629;-68
2023/12/22 14:25:09;;;;;;;2.10;0.25;;;;;;;;;;4943710;28;20047;-68
2023/12/22 14:27:35;;;;;;;0.82;0.30;;;;;;;;;;4946278;28;20151;-68